Terminal Aerodrome Forecast
Issued by NWS

Home | Current Version | Previous Version | Text Only | Print | Product List | Glossary On
Versions: 1 2 3 4 5 6 7 8 9 10 11 12 13 14 15 16 17 18 19 20 21 22 23 24 25
000
FTUS46 KSGX 012045 AAB
TAFSAN
TAF AMD
KSAN 012045Z 0121/0224 28009KT P6SM FEW007
     FM020100 VRB04KT 6SM BR FEW010
     FM020500 VRB04KT P6SM BKN010
     FM021700 VRB05KT P6SM SCT010
     FM021900 27010KT P6SM SCT015=

USA.gov is the U.S. government's official web portal to all federal, state and local government web resources and services.